sensor_id;sensor_type;location;lat;lon;timestamp;P1;durP1;ratioP1;P2;durP2;ratioP2
9948;SDS011;5013;51.840;8.276;2022-12-13T00:01:58;70.00;;;36.80;;
9948;SDS011;5013;51.840;8.276;2022-12-13T00:04:24;65.60;;;37.57;;
9948;SDS011;5013;51.840;8.276;2022-12-13T00:06:50;61.50;;;35.77;;
9948;SDS011;5013;51.840;8.276;2022-12-13T00:09:17;69.97;;;37.50;;
9948;SDS011;5013;51.840;8.276;2022-12-13T00:11:44;64.17;;;36.20;;
9948;SDS011;5013;51.840;8.276;2022-12-13T00:14:10;64.43;;;35.80;;
9948;SDS011;5013;51.840;8.276;2022-12-13T00:16:37;64.37;;;35.17;;
9948;SDS011;5013;51.840;8.276;2022-12-13T00:19:03;66.73;;;36.13;;
9948;SDS011;5013;51.840;8.276;2022-12-13T00:21:30;56.37;;;33.13;;
9948;SDS011;5013;51.840;8.276;2022-12-13T00:23:57;66.50;;;35.53;;
9948;SDS011;5013;51.840;8.276;2022-12-13T00:26:25;66.03;;;36.50;;
9948;SDS011;5013;51.840;8.276;2022-12-13T00:28:52;76.83;;;40.03;;
9948;SDS011;5013;51.840;8.276;2022-12-13T00:31:19;68.30;;;39.17;;
9948;SDS011;5013;51.840;8.276;2022-12-13T00:33:47;67.60;;;36.03;;
9948;SDS011;5013;51.840;8.276;2022-12-13T00:36:13;67.00;;;37.40;;
9948;SDS011;5013;51.840;8.276;2022-12-13T00:38:39;62.87;;;35.10;;
9948;SDS011;5013;51.840;8.276;2022-12-13T00:41:11;62.37;;;34.87;;
9948;SDS011;5013;51.840;8.276;2022-12-13T00:43:44;62.97;;;35.03;;
9948;SDS011;5013;51.840;8.276;2022-12-13T00:46:11;66.20;;;34.93;;
9948;SDS011;5013;51.840;8.276;2022-12-13T00:48:39;63.03;;;35.70;;
9948;SDS011;5013;51.840;8.276;2022-12-13T00:51:06;69.20;;;37.07;;
9948;SDS011;5013;51.840;8.276;2022-12-13T00:53:32;70.47;;;37.40;;
9948;SDS011;5013;51.840;8.276;2022-12-13T00:55:58;65.67;;;36.33;;
9948;SDS011;5013;51.840;8.276;2022-12-13T00:58:23;66.83;;;36.53;;
9948;SDS011;5013;51.840;8.276;2022-12-13T01:00:49;68.87;;;37.53;;
9948;SDS011;5013;51.840;8.276;2022-12-13T01:03:15;68.77;;;37.13;;
9948;SDS011;5013;51.840;8.276;2022-12-13T01:05:49;72.50;;;38.07;;
9948;SDS011;5013;51.840;8.276;2022-12-13T01:08:15;68.57;;;36.43;;
9948;SDS011;5013;51.840;8.276;2022-12-13T01:10:42;67.70;;;38.00;;
9948;SDS011;5013;51.840;8.276;2022-12-13T01:13:09;71.37;;;37.97;;
9948;SDS011;5013;51.840;8.276;2022-12-13T01:15:38;71.30;;;38.00;;
9948;SDS011;5013;51.840;8.276;2022-12-13T01:18:08;78.63;;;40.23;;
9948;SDS011;5013;51.840;8.276;2022-12-13T01:20:34;65.23;;;36.97;;
9948;SDS011;5013;51.840;8.276;2022-12-13T01:23:00;70.97;;;37.73;;
9948;SDS011;5013;51.840;8.276;2022-12-13T01:25:25;69.10;;;36.80;;
9948;SDS011;5013;51.840;8.276;2022-12-13T01:27:51;68.73;;;36.57;;
9948;SDS011;5013;51.840;8.276;2022-12-13T01:30:17;64.50;;;37.20;;
9948;SDS011;5013;51.840;8.276;2022-12-13T01:32:42;67.10;;;34.37;;
9948;SDS011;5013;51.840;8.276;2022-12-13T01:35:08;58.97;;;35.00;;
9948;SDS011;5013;51.840;8.276;2022-12-13T01:37:33;60.83;;;34.27;;
9948;SDS011;5013;51.840;8.276;2022-12-13T01:40:00;65.10;;;35.07;;
9948;SDS011;5013;51.840;8.276;2022-12-13T01:42:27;57.17;;;32.43;;
9948;SDS011;5013;51.840;8.276;2022-12-13T01:45:02;65.00;;;35.07;;
9948;SDS011;5013;51.840;8.276;2022-12-13T01:47:41;63.30;;;34.53;;
9948;SDS011;5013;51.840;8.276;2022-12-13T01:50:17;61.77;;;34.43;;
9948;SDS011;5013;51.840;8.276;2022-12-13T01:52:50;62.43;;;34.17;;
9948;SDS011;5013;51.840;8.276;2022-12-13T01:55:19;56.67;;;32.43;;
9948;SDS011;5013;51.840;8.276;2022-12-13T01:57:45;65.27;;;34.23;;
9948;SDS011;5013;51.840;8.276;2022-12-13T02:00:14;62.80;;;34.10;;
9948;SDS011;5013;51.840;8.276;2022-12-13T02:02:40;61.90;;;34.40;;
9948;SDS011;5013;51.840;8.276;2022-12-13T02:07:37;62.83;;;33.77;;
9948;SDS011;5013;51.840;8.276;2022-12-13T02:10:06;56.97;;;32.03;;
9948;SDS011;5013;51.840;8.276;2022-12-13T02:12:33;62.63;;;34.40;;
9948;SDS011;5013;51.840;8.276;2022-12-13T02:15:05;62.63;;;34.47;;
9948;SDS011;5013;51.840;8.276;2022-12-13T02:17:43;57.57;;;33.73;;
9948;SDS011;5013;51.840;8.276;2022-12-13T02:22:56;61.47;;;32.63;;
9948;SDS011;5013;51.840;8.276;2022-12-13T02:34:07;59.13;;;34.17;;
9948;SDS011;5013;51.840;8.276;2022-12-13T02:39:34;61.43;;;32.60;;
9948;SDS011;5013;51.840;8.276;2022-12-13T02:42:17;62.90;;;33.93;;
9948;SDS011;5013;51.840;8.276;2022-12-13T02:45:05;63.67;;;35.00;;
9948;SDS011;5013;51.840;8.276;2022-12-13T02:47:32;63.67;;;32.57;;
9948;SDS011;5013;51.840;8.276;2022-12-13T02:50:02;60.57;;;34.00;;
9948;SDS011;5013;51.840;8.276;2022-12-13T02:52:30;63.40;;;33.83;;
9948;SDS011;5013;51.840;8.276;2022-12-13T02:54:57;61.00;;;33.17;;
9948;SDS011;5013;51.840;8.276;2022-12-13T02:57:30;63.07;;;33.17;;
9948;SDS011;5013;51.840;8.276;2022-12-13T02:59:56;59.03;;;33.27;;
9948;SDS011;5013;51.840;8.276;2022-12-13T03:05:24;60.10;;;33.50;;
9948;SDS011;5013;51.840;8.276;2022-12-13T03:08:24;61.17;;;31.93;;
9948;SDS011;5013;51.840;8.276;2022-12-13T03:13:39;62.80;;;32.43;;
9948;SDS011;5013;51.840;8.276;2022-12-13T03:16:14;54.37;;;30.27;;
9948;SDS011;5013;51.840;8.276;2022-12-13T03:18:41;50.27;;;29.27;;
9948;SDS011;5013;51.840;8.276;2022-12-13T03:21:08;52.93;;;31.00;;
9948;SDS011;5013;51.840;8.276;2022-12-13T03:23:36;54.70;;;30.50;;
9948;SDS011;5013;51.840;8.276;2022-12-13T03:26:11;54.17;;;30.93;;
9948;SDS011;5013;51.840;8.276;2022-12-13T03:28:40;50.57;;;30.90;;
9948;SDS011;5013;51.840;8.276;2022-12-13T03:31:06;53.40;;;30.77;;
9948;SDS011;5013;51.840;8.276;2022-12-13T03:33:32;51.60;;;30.00;;
9948;SDS011;5013;51.840;8.276;2022-12-13T03:35:59;47.90;;;28.87;;
9948;SDS011;5013;51.840;8.276;2022-12-13T03:38:26;48.97;;;29.43;;
9948;SDS011;5013;51.840;8.276;2022-12-13T03:40:55;51.33;;;28.43;;
9948;SDS011;5013;51.840;8.276;2022-12-13T03:43:22;51.47;;;30.17;;
9948;SDS011;5013;51.840;8.276;2022-12-13T03:45:52;48.40;;;26.90;;
9948;SDS011;5013;51.840;8.276;2022-12-13T03:48:18;49.67;;;29.63;;
9948;SDS011;5013;51.840;8.276;2022-12-13T03:50:44;49.63;;;29.90;;
9948;SDS011;5013;51.840;8.276;2022-12-13T03:53:09;53.40;;;28.50;;
9948;SDS011;5013;51.840;8.276;2022-12-13T03:55:35;48.37;;;29.40;;
9948;SDS011;5013;51.840;8.276;2022-12-13T03:58:01;49.97;;;29.17;;
9948;SDS011;5013;51.840;8.276;2022-12-13T04:00:26;49.13;;;28.27;;
9948;SDS011;5013;51.840;8.276;2022-12-13T04:02:57;49.67;;;29.37;;
9948;SDS011;5013;51.840;8.276;2022-12-13T04:05:22;50.37;;;27.93;;
9948;SDS011;5013;51.840;8.276;2022-12-13T04:07:48;55.97;;;30.50;;
9948;SDS011;5013;51.840;8.276;2022-12-13T04:10:14;48.40;;;28.93;;
9948;SDS011;5013;51.840;8.276;2022-12-13T04:12:40;50.03;;;29.37;;
9948;SDS011;5013;51.840;8.276;2022-12-13T04:15:24;54.97;;;28.87;;
9948;SDS011;5013;51.840;8.276;2022-12-13T04:17:51;48.23;;;27.43;;
9948;SDS011;5013;51.840;8.276;2022-12-13T04:20:17;50.70;;;28.63;;
9948;SDS011;5013;51.840;8.276;2022-12-13T04:22:42;50.07;;;29.53;;
9948;SDS011;5013;51.840;8.276;2022-12-13T04:25:08;48.17;;;28.63;;
9948;SDS011;5013;51.840;8.276;2022-12-13T04:27:34;55.33;;;29.90;;
9948;SDS011;5013;51.840;8.276;2022-12-13T04:30:02;52.03;;;29.33;;
9948;SDS011;5013;51.840;8.276;2022-12-13T04:32:28;47.63;;;27.50;;
9948;SDS011;5013;51.840;8.276;2022-12-13T04:34:54;47.03;;;27.53;;
9948;SDS011;5013;51.840;8.276;2022-12-13T04:37:20;51.57;;;28.03;;
9948;SDS011;5013;51.840;8.276;2022-12-13T04:39:45;51.77;;;27.67;;
9948;SDS011;5013;51.840;8.276;2022-12-13T04:42:12;50.40;;;27.63;;
9948;SDS011;5013;51.840;8.276;2022-12-13T04:44:38;49.03;;;28.63;;
9948;SDS011;5013;51.840;8.276;2022-12-13T04:47:03;48.80;;;27.97;;
9948;SDS011;5013;51.840;8.276;2022-12-13T04:49:29;49.97;;;28.30;;
9948;SDS011;5013;51.840;8.276;2022-12-13T04:51:55;44.43;;;27.37;;
9948;SDS011;5013;51.840;8.276;2022-12-13T04:54:21;52.00;;;28.63;;
9948;SDS011;5013;51.840;8.276;2022-12-13T04:56:47;48.03;;;27.10;;
9948;SDS011;5013;51.840;8.276;2022-12-13T04:59:13;48.80;;;28.27;;
9948;SDS011;5013;51.840;8.276;2022-12-13T05:01:39;50.73;;;28.47;;
9948;SDS011;5013;51.840;8.276;2022-12-13T05:04:05;51.13;;;28.07;;
9948;SDS011;5013;51.840;8.276;2022-12-13T05:09:18;51.70;;;26.87;;
9948;SDS011;5013;51.840;8.276;2022-12-13T05:11:43;40.17;;;24.40;;
9948;SDS011;5013;51.840;8.276;2022-12-13T05:14:09;48.17;;;27.43;;
9948;SDS011;5013;51.840;8.276;2022-12-13T05:16:34;48.27;;;27.67;;
9948;SDS011;5013;51.840;8.276;2022-12-13T05:19:00;51.77;;;27.07;;
9948;SDS011;5013;51.840;8.276;2022-12-13T05:21:25;44.37;;;26.93;;
9948;SDS011;5013;51.840;8.276;2022-12-13T05:23:51;53.10;;;27.57;;
9948;SDS011;5013;51.840;8.276;2022-12-13T05:26:17;50.53;;;28.77;;
9948;SDS011;5013;51.840;8.276;2022-12-13T05:28:42;55.10;;;30.43;;
9948;SDS011;5013;51.840;8.276;2022-12-13T05:31:08;57.67;;;31.93;;
9948;SDS011;5013;51.840;8.276;2022-12-13T05:33:35;57.43;;;30.33;;
9948;SDS011;5013;51.840;8.276;2022-12-13T05:36:01;53.43;;;29.80;;
9948;SDS011;5013;51.840;8.276;2022-12-13T05:38:27;52.60;;;29.00;;
9948;SDS011;5013;51.840;8.276;2022-12-13T05:40:54;56.53;;;30.57;;
9948;SDS011;5013;51.840;8.276;2022-12-13T05:43:19;53.33;;;29.33;;
9948;SDS011;5013;51.840;8.276;2022-12-13T05:45:45;54.13;;;29.47;;
9948;SDS011;5013;51.840;8.276;2022-12-13T05:48:11;49.27;;;28.30;;
9948;SDS011;5013;51.840;8.276;2022-12-13T05:50:36;52.47;;;28.67;;
9948;SDS011;5013;51.840;8.276;2022-12-13T05:53:02;47.87;;;27.47;;
9948;SDS011;5013;51.840;8.276;2022-12-13T05:55:29;56.10;;;28.37;;
9948;SDS011;5013;51.840;8.276;2022-12-13T05:57:55;50.07;;;29.07;;
9948;SDS011;5013;51.840;8.276;2022-12-13T06:00:22;56.23;;;28.70;;
9948;SDS011;5013;51.840;8.276;2022-12-13T06:02:47;57.10;;;29.70;;
9948;SDS011;5013;51.840;8.276;2022-12-13T06:05:13;56.30;;;29.80;;
9948;SDS011;5013;51.840;8.276;2022-12-13T06:07:38;57.43;;;29.43;;
9948;SDS011;5013;51.840;8.276;2022-12-13T06:10:06;52.73;;;28.43;;
9948;SDS011;5013;51.840;8.276;2022-12-13T06:12:35;55.03;;;29.13;;
9948;SDS011;5013;51.840;8.276;2022-12-13T06:15:02;54.30;;;28.70;;
9948;SDS011;5013;51.840;8.276;2022-12-13T06:17:29;56.33;;;30.03;;
9948;SDS011;5013;51.840;8.276;2022-12-13T06:19:57;59.90;;;31.80;;
9948;SDS011;5013;51.840;8.276;2022-12-13T06:22:24;52.10;;;27.93;;
9948;SDS011;5013;51.840;8.276;2022-12-13T06:24:49;51.97;;;30.40;;
9948;SDS011;5013;51.840;8.276;2022-12-13T06:27:15;51.60;;;29.20;;
9948;SDS011;5013;51.840;8.276;2022-12-13T06:29:40;59.20;;;31.10;;
9948;SDS011;5013;51.840;8.276;2022-12-13T06:32:06;58.93;;;30.63;;
9948;SDS011;5013;51.840;8.276;2022-12-13T06:34:33;59.13;;;31.47;;
9948;SDS011;5013;51.840;8.276;2022-12-13T06:36:59;53.70;;;29.37;;
9948;SDS011;5013;51.840;8.276;2022-12-13T06:39:26;56.73;;;29.70;;
9948;SDS011;5013;51.840;8.276;2022-12-13T06:41:52;57.73;;;30.23;;
9948;SDS011;5013;51.840;8.276;2022-12-13T06:44:19;58.13;;;32.87;;
9948;SDS011;5013;51.840;8.276;2022-12-13T06:46:45;55.20;;;30.93;;
9948;SDS011;5013;51.840;8.276;2022-12-13T06:49:10;54.10;;;29.87;;
9948;SDS011;5013;51.840;8.276;2022-12-13T06:51:36;57.90;;;31.60;;
9948;SDS011;5013;51.840;8.276;2022-12-13T06:54:01;56.27;;;30.87;;
9948;SDS011;5013;51.840;8.276;2022-12-13T06:56:27;57.97;;;30.33;;
9948;SDS011;5013;51.840;8.276;2022-12-13T06:58:54;52.13;;;29.10;;
9948;SDS011;5013;51.840;8.276;2022-12-13T07:01:19;66.27;;;32.83;;
9948;SDS011;5013;51.840;8.276;2022-12-13T07:03:45;58.27;;;30.43;;
9948;SDS011;5013;51.840;8.276;2022-12-13T07:06:12;52.97;;;30.03;;
9948;SDS011;5013;51.840;8.276;2022-12-13T07:08:40;54.50;;;29.60;;
9948;SDS011;5013;51.840;8.276;2022-12-13T07:11:06;54.13;;;29.27;;
9948;SDS011;5013;51.840;8.276;2022-12-13T07:13:37;58.37;;;31.33;;
9948;SDS011;5013;51.840;8.276;2022-12-13T07:16:03;59.57;;;30.50;;
9948;SDS011;5013;51.840;8.276;2022-12-13T07:18:28;58.63;;;32.40;;
9948;SDS011;5013;51.840;8.276;2022-12-13T07:20:54;59.83;;;31.43;;
9948;SDS011;5013;51.840;8.276;2022-12-13T07:23:19;54.57;;;30.27;;
9948;SDS011;5013;51.840;8.276;2022-12-13T07:25:51;56.17;;;30.20;;
9948;SDS011;5013;51.840;8.276;2022-12-13T07:28:18;53.80;;;29.37;;
9948;SDS011;5013;51.840;8.276;2022-12-13T07:30:44;51.40;;;29.20;;
9948;SDS011;5013;51.840;8.276;2022-12-13T07:33:10;56.17;;;30.97;;
9948;SDS011;5013;51.840;8.276;2022-12-13T07:35:37;54.10;;;29.43;;
9948;SDS011;5013;51.840;8.276;2022-12-13T07:38:04;55.60;;;29.47;;
9948;SDS011;5013;51.840;8.276;2022-12-13T07:40:34;54.23;;;30.17;;
9948;SDS011;5013;51.840;8.276;2022-12-13T07:43:00;48.17;;;27.80;;
9948;SDS011;5013;51.840;8.276;2022-12-13T07:45:26;50.47;;;28.93;;
9948;SDS011;5013;51.840;8.276;2022-12-13T07:47:51;47.33;;;26.77;;
9948;SDS011;5013;51.840;8.276;2022-12-13T07:50:17;47.83;;;25.83;;
9948;SDS011;5013;51.840;8.276;2022-12-13T07:52:45;55.37;;;29.60;;
9948;SDS011;5013;51.840;8.276;2022-12-13T07:55:12;49.13;;;28.10;;
9948;SDS011;5013;51.840;8.276;2022-12-13T07:57:38;47.57;;;28.40;;
9948;SDS011;5013;51.840;8.276;2022-12-13T08:00:03;51.10;;;27.13;;
9948;SDS011;5013;51.840;8.276;2022-12-13T08:02:29;49.90;;;27.33;;
9948;SDS011;5013;51.840;8.276;2022-12-13T08:04:55;50.57;;;27.80;;
9948;SDS011;5013;51.840;8.276;2022-12-13T08:07:21;48.63;;;28.47;;
9948;SDS011;5013;51.840;8.276;2022-12-13T08:09:47;56.87;;;30.63;;
9948;SDS011;5013;51.840;8.276;2022-12-13T08:12:12;67.63;;;34.90;;
9948;SDS011;5013;51.840;8.276;2022-12-13T08:14:38;66.37;;;37.00;;
9948;SDS011;5013;51.840;8.276;2022-12-13T08:17:03;53.10;;;29.83;;
9948;SDS011;5013;51.840;8.276;2022-12-13T08:19:29;56.93;;;31.60;;
9948;SDS011;5013;51.840;8.276;2022-12-13T08:21:54;56.30;;;31.23;;
9948;SDS011;5013;51.840;8.276;2022-12-13T08:24:20;53.80;;;31.50;;
9948;SDS011;5013;51.840;8.276;2022-12-13T08:26:47;62.37;;;32.73;;
9948;SDS011;5013;51.840;8.276;2022-12-13T08:29:13;60.90;;;33.43;;
9948;SDS011;5013;51.840;8.276;2022-12-13T08:31:39;63.00;;;32.93;;
9948;SDS011;5013;51.840;8.276;2022-12-13T08:34:05;61.37;;;33.03;;
9948;SDS011;5013;51.840;8.276;2022-12-13T08:36:31;63.83;;;32.90;;
9948;SDS011;5013;51.840;8.276;2022-12-13T08:38:56;66.10;;;34.43;;
9948;SDS011;5013;51.840;8.276;2022-12-13T08:41:22;59.53;;;34.23;;
9948;SDS011;5013;51.840;8.276;2022-12-13T08:43:49;63.43;;;34.13;;
9948;SDS011;5013;51.840;8.276;2022-12-13T08:46:15;69.83;;;35.73;;
9948;SDS011;5013;51.840;8.276;2022-12-13T08:48:40;70.37;;;35.87;;
9948;SDS011;5013;51.840;8.276;2022-12-13T08:51:07;78.07;;;37.03;;
9948;SDS011;5013;51.840;8.276;2022-12-13T08:53:35;64.20;;;35.60;;
9948;SDS011;5013;51.840;8.276;2022-12-13T08:56:05;69.93;;;35.20;;
9948;SDS011;5013;51.840;8.276;2022-12-13T08:58:34;62.83;;;33.87;;
9948;SDS011;5013;51.840;8.276;2022-12-13T09:01:03;63.57;;;33.17;;
9948;SDS011;5013;51.840;8.276;2022-12-13T09:03:33;58.57;;;32.40;;
9948;SDS011;5013;51.840;8.276;2022-12-13T09:06:06;67.90;;;36.10;;
9948;SDS011;5013;51.840;8.276;2022-12-13T09:08:37;59.93;;;32.17;;
9948;SDS011;5013;51.840;8.276;2022-12-13T09:11:04;61.13;;;33.57;;
9948;SDS011;5013;51.840;8.276;2022-12-13T09:13:31;61.73;;;33.37;;
9948;SDS011;5013;51.840;8.276;2022-12-13T09:16:02;63.07;;;34.63;;
9948;SDS011;5013;51.840;8.276;2022-12-13T09:18:31;69.73;;;37.23;;
9948;SDS011;5013;51.840;8.276;2022-12-13T09:20:56;63.97;;;36.63;;
9948;SDS011;5013;51.840;8.276;2022-12-13T09:23:22;69.97;;;36.70;;
9948;SDS011;5013;51.840;8.276;2022-12-13T09:25:52;59.30;;;33.90;;
9948;SDS011;5013;51.840;8.276;2022-12-13T09:28:19;59.60;;;31.83;;
9948;SDS011;5013;51.840;8.276;2022-12-13T09:30:44;65.33;;;34.30;;
9948;SDS011;5013;51.840;8.276;2022-12-13T09:33:10;63.70;;;33.40;;
9948;SDS011;5013;51.840;8.276;2022-12-13T09:35:37;58.13;;;33.47;;
9948;SDS011;5013;51.840;8.276;2022-12-13T09:38:03;61.57;;;35.13;;
9948;SDS011;5013;51.840;8.276;2022-12-13T09:40:28;61.90;;;33.87;;
9948;SDS011;5013;51.840;8.276;2022-12-13T09:42:56;66.67;;;35.50;;
9948;SDS011;5013;51.840;8.276;2022-12-13T09:45:23;63.40;;;34.23;;
9948;SDS011;5013;51.840;8.276;2022-12-13T09:47:50;65.57;;;36.13;;
9948;SDS011;5013;51.840;8.276;2022-12-13T09:50:19;66.77;;;35.07;;
9948;SDS011;5013;51.840;8.276;2022-12-13T09:52:50;58.90;;;33.77;;
9948;SDS011;5013;51.840;8.276;2022-12-13T09:57:50;63.33;;;34.80;;
9948;SDS011;5013;51.840;8.276;2022-12-13T10:00:18;62.03;;;35.37;;
9948;SDS011;5013;51.840;8.276;2022-12-13T10:10:56;60.90;;;34.80;;
9948;SDS011;5013;51.840;8.276;2022-12-13T10:13:40;66.47;;;37.57;;
9948;SDS011;5013;51.840;8.276;2022-12-13T10:19:11;64.73;;;37.60;;
9948;SDS011;5013;51.840;8.276;2022-12-13T10:21:41;60.93;;;32.97;;
9948;SDS011;5013;51.840;8.276;2022-12-13T10:24:18;61.80;;;34.80;;
9948;SDS011;5013;51.840;8.276;2022-12-13T10:26:49;60.23;;;32.90;;
9948;SDS011;5013;51.840;8.276;2022-12-13T10:29:15;55.87;;;32.40;;
9948;SDS011;5013;51.840;8.276;2022-12-13T10:31:42;63.93;;;32.70;;
9948;SDS011;5013;51.840;8.276;2022-12-13T10:34:21;60.13;;;35.13;;
9948;SDS011;5013;51.840;8.276;2022-12-13T10:36:54;58.47;;;32.73;;
9948;SDS011;5013;51.840;8.276;2022-12-13T10:39:36;48.00;;;29.80;;
9948;SDS011;5013;51.840;8.276;2022-12-13T10:42:03;53.90;;;31.47;;
9948;SDS011;5013;51.840;8.276;2022-12-13T10:44:37;55.43;;;30.30;;
9948;SDS011;5013;51.840;8.276;2022-12-13T10:49:39;49.87;;;30.07;;
9948;SDS011;5013;51.840;8.276;2022-12-13T10:52:19;51.43;;;30.20;;
9948;SDS011;5013;51.840;8.276;2022-12-13T10:54:55;56.53;;;32.83;;
9948;SDS011;5013;51.840;8.276;2022-12-13T10:57:24;53.17;;;31.23;;
9948;SDS011;5013;51.840;8.276;2022-12-13T10:59:50;56.00;;;32.17;;
9948;SDS011;5013;51.840;8.276;2022-12-13T11:07:52;48.13;;;29.23;;
9948;SDS011;5013;51.840;8.276;2022-12-13T11:10:25;50.33;;;29.67;;
9948;SDS011;5013;51.840;8.276;2022-12-13T11:12:54;47.90;;;29.07;;
9948;SDS011;5013;51.840;8.276;2022-12-13T11:15:27;48.63;;;29.17;;
9948;SDS011;5013;51.840;8.276;2022-12-13T11:17:56;46.67;;;29.67;;
9948;SDS011;5013;51.840;8.276;2022-12-13T11:20:25;49.40;;;28.97;;
9948;SDS011;5013;51.840;8.276;2022-12-13T11:23:02;52.00;;;30.43;;
9948;SDS011;5013;51.840;8.276;2022-12-13T11:25:52;49.67;;;30.47;;
9948;SDS011;5013;51.840;8.276;2022-12-13T11:28:30;50.27;;;28.20;;
9948;SDS011;5013;51.840;8.276;2022-12-13T11:34:02;52.10;;;29.77;;
9948;SDS011;5013;51.840;8.276;2022-12-13T11:39:39;47.43;;;27.23;;
9948;SDS011;5013;51.840;8.276;2022-12-13T11:42:12;45.07;;;27.23;;
9948;SDS011;5013;51.840;8.276;2022-12-13T11:45:26;46.80;;;27.33;;
9948;SDS011;5013;51.840;8.276;2022-12-13T11:50:49;45.60;;;26.27;;
9948;SDS011;5013;51.840;8.276;2022-12-13T11:55:47;41.23;;;25.43;;
9948;SDS011;5013;51.840;8.276;2022-12-13T11:58:35;43.77;;;25.67;;
9948;SDS011;5013;51.840;8.276;2022-12-13T12:01:19;43.37;;;25.77;;
9948;SDS011;5013;51.840;8.276;2022-12-13T12:03:50;37.07;;;24.17;;
9948;SDS011;5013;51.840;8.276;2022-12-13T12:06:31;46.83;;;26.10;;
9948;SDS011;5013;51.840;8.276;2022-12-13T12:09:03;38.43;;;24.13;;
9948;SDS011;5013;51.840;8.276;2022-12-13T12:11:37;39.93;;;24.27;;
9948;SDS011;5013;51.840;8.276;2022-12-13T12:14:21;39.93;;;24.20;;
9948;SDS011;5013;51.840;8.276;2022-12-13T12:16:53;38.53;;;23.33;;
9948;SDS011;5013;51.840;8.276;2022-12-13T12:19:23;38.67;;;24.57;;
9948;SDS011;5013;51.840;8.276;2022-12-13T12:21:55;38.97;;;24.17;;
9948;SDS011;5013;51.840;8.276;2022-12-13T12:35:32;40.37;;;24.73;;
9948;SDS011;5013;51.840;8.276;2022-12-13T12:41:27;37.53;;;24.03;;
9948;SDS011;5013;51.840;8.276;2022-12-13T12:52:26;39.60;;;23.90;;
9948;SDS011;5013;51.840;8.276;2022-12-13T12:55:06;40.60;;;24.77;;
9948;SDS011;5013;51.840;8.276;2022-12-13T13:00:19;42.43;;;25.90;;
9948;SDS011;5013;51.840;8.276;2022-12-13T13:05:41;39.03;;;23.70;;
9948;SDS011;5013;51.840;8.276;2022-12-13T13:08:19;38.97;;;23.53;;
9948;SDS011;5013;51.840;8.276;2022-12-13T13:10:55;39.33;;;23.57;;
9948;SDS011;5013;51.840;8.276;2022-12-13T13:13:31;38.87;;;23.17;;
9948;SDS011;5013;51.840;8.276;2022-12-13T13:18:52;38.33;;;23.03;;
9948;SDS011;5013;51.840;8.276;2022-12-13T13:24:03;43.60;;;26.20;;
9948;SDS011;5013;51.840;8.276;2022-12-13T13:26:32;40.20;;;25.33;;
9948;SDS011;5013;51.840;8.276;2022-12-13T13:29:19;40.43;;;24.03;;
9948;SDS011;5013;51.840;8.276;2022-12-13T13:34:21;43.43;;;24.63;;
9948;SDS011;5013;51.840;8.276;2022-12-13T13:36:48;40.43;;;23.57;;
9948;SDS011;5013;51.840;8.276;2022-12-13T13:49:39;37.20;;;21.80;;
9948;SDS011;5013;51.840;8.276;2022-12-13T13:52:21;33.83;;;20.73;;
9948;SDS011;5013;51.840;8.276;2022-12-13T14:00:38;42.80;;;22.50;;
9948;SDS011;5013;51.840;8.276;2022-12-13T14:05:59;38.70;;;21.90;;
9948;SDS011;5013;51.840;8.276;2022-12-13T14:14:36;40.43;;;21.30;;
9948;SDS011;5013;51.840;8.276;2022-12-13T14:25:57;36.07;;;21.17;;
9948;SDS011;5013;51.840;8.276;2022-12-13T14:28:33;31.90;;;19.70;;
9948;SDS011;5013;51.840;8.276;2022-12-13T14:31:20;36.23;;;20.60;;
9948;SDS011;5013;51.840;8.276;2022-12-13T14:34:01;37.53;;;20.67;;
9948;SDS011;5013;51.840;8.276;2022-12-13T14:36:30;34.70;;;20.77;;
9948;SDS011;5013;51.840;8.276;2022-12-13T14:39:11;29.93;;;18.47;;
9948;SDS011;5013;51.840;8.276;2022-12-13T14:41:46;33.97;;;20.23;;
9948;SDS011;5013;51.840;8.276;2022-12-13T14:46:49;30.10;;;18.67;;
9948;SDS011;5013;51.840;8.276;2022-12-13T14:49:15;37.77;;;20.80;;
9948;SDS011;5013;51.840;8.276;2022-12-13T14:51:41;30.50;;;17.40;;
9948;SDS011;5013;51.840;8.276;2022-12-13T14:54:13;32.70;;;19.17;;
9948;SDS011;5013;51.840;8.276;2022-12-13T14:56:54;30.63;;;18.97;;
9948;SDS011;5013;51.840;8.276;2022-12-13T14:59:26;31.03;;;17.73;;
9948;SDS011;5013;51.840;8.276;2022-12-13T15:01:54;29.77;;;19.00;;
9948;SDS011;5013;51.840;8.276;2022-12-13T15:04:31;36.87;;;19.37;;
9948;SDS011;5013;51.840;8.276;2022-12-13T15:07:00;31.87;;;19.40;;
9948;SDS011;5013;51.840;8.276;2022-12-13T15:09:33;30.77;;;18.30;;
9948;SDS011;5013;51.840;8.276;2022-12-13T15:12:00;30.80;;;19.30;;
9948;SDS011;5013;51.840;8.276;2022-12-13T15:14:26;34.47;;;19.90;;
9948;SDS011;5013;51.840;8.276;2022-12-13T15:16:52;33.20;;;19.00;;
9948;SDS011;5013;51.840;8.276;2022-12-13T15:19:21;31.90;;;19.23;;
9948;SDS011;5013;51.840;8.276;2022-12-13T15:24:22;42.63;;;19.13;;
9948;SDS011;5013;51.840;8.276;2022-12-13T15:26:52;34.13;;;19.37;;
9948;SDS011;5013;51.840;8.276;2022-12-13T15:29:19;34.73;;;19.83;;
9948;SDS011;5013;51.840;8.276;2022-12-13T15:31:47;30.50;;;18.90;;
9948;SDS011;5013;51.840;8.276;2022-12-13T15:39:58;36.83;;;19.10;;
9948;SDS011;5013;51.840;8.276;2022-12-13T15:42:33;36.40;;;19.80;;
9948;SDS011;5013;51.840;8.276;2022-12-13T15:45:18;36.93;;;20.40;;
9948;SDS011;5013;51.840;8.276;2022-12-13T15:51:10;32.63;;;19.47;;
9948;SDS011;5013;51.840;8.276;2022-12-13T15:53:38;69.47;;;29.67;;
9948;SDS011;5013;51.840;8.276;2022-12-13T15:58:57;80.77;;;33.00;;
9948;SDS011;5013;51.840;8.276;2022-12-13T16:01:30;63.80;;;28.03;;
9948;SDS011;5013;51.840;8.276;2022-12-13T16:04:01;52.90;;;25.27;;
9948;SDS011;5013;51.840;8.276;2022-12-13T16:06:29;51.00;;;24.93;;
9948;SDS011;5013;51.840;8.276;2022-12-13T16:08:57;50.63;;;24.70;;
9948;SDS011;5013;51.840;8.276;2022-12-13T16:11:26;55.50;;;25.90;;
9948;SDS011;5013;51.840;8.276;2022-12-13T16:16:54;57.03;;;30.37;;
9948;SDS011;5013;51.840;8.276;2022-12-13T16:19:34;45.27;;;25.43;;
9948;SDS011;5013;51.840;8.276;2022-12-13T16:22:00;47.93;;;23.90;;
9948;SDS011;5013;51.840;8.276;2022-12-13T16:24:26;40.33;;;22.87;;
9948;SDS011;5013;51.840;8.276;2022-12-13T16:26:51;38.97;;;22.50;;
9948;SDS011;5013;51.840;8.276;2022-12-13T16:29:17;40.40;;;22.63;;
9948;SDS011;5013;51.840;8.276;2022-12-13T16:31:46;40.50;;;22.23;;
9948;SDS011;5013;51.840;8.276;2022-12-13T16:34:12;41.10;;;21.20;;
9948;SDS011;5013;51.840;8.276;2022-12-13T16:36:41;40.50;;;23.17;;
9948;SDS011;5013;51.840;8.276;2022-12-13T16:39:08;42.00;;;23.10;;
9948;SDS011;5013;51.840;8.276;2022-12-13T16:41:38;41.53;;;22.17;;
9948;SDS011;5013;51.840;8.276;2022-12-13T16:44:07;38.93;;;21.23;;
9948;SDS011;5013;51.840;8.276;2022-12-13T16:46:34;36.07;;;20.57;;
9948;SDS011;5013;51.840;8.276;2022-12-13T16:49:12;35.63;;;19.97;;
9948;SDS011;5013;51.840;8.276;2022-12-13T16:51:51;36.53;;;19.63;;
9948;SDS011;5013;51.840;8.276;2022-12-13T16:54:17;35.97;;;21.00;;
9948;SDS011;5013;51.840;8.276;2022-12-13T16:56:44;40.57;;;22.20;;
9948;SDS011;5013;51.840;8.276;2022-12-13T16:59:14;40.07;;;22.20;;
9948;SDS011;5013;51.840;8.276;2022-12-13T17:01:41;37.27;;;20.97;;
9948;SDS011;5013;51.840;8.276;2022-12-13T17:04:09;37.90;;;21.53;;
9948;SDS011;5013;51.840;8.276;2022-12-13T17:06:39;36.73;;;20.80;;
9948;SDS011;5013;51.840;8.276;2022-12-13T17:09:06;42.93;;;22.23;;
9948;SDS011;5013;51.840;8.276;2022-12-13T17:14:54;45.33;;;23.87;;
9948;SDS011;5013;51.840;8.276;2022-12-13T17:17:19;40.27;;;22.73;;
9948;SDS011;5013;51.840;8.276;2022-12-13T17:19:45;38.03;;;22.10;;
9948;SDS011;5013;51.840;8.276;2022-12-13T17:22:10;39.90;;;21.80;;
9948;SDS011;5013;51.840;8.276;2022-12-13T17:24:36;37.70;;;22.73;;
9948;SDS011;5013;51.840;8.276;2022-12-13T17:27:02;41.47;;;22.00;;
9948;SDS011;5013;51.840;8.276;2022-12-13T17:29:28;38.80;;;22.53;;
9948;SDS011;5013;51.840;8.276;2022-12-13T17:31:56;35.13;;;20.53;;